Calafat, Romania
Current Conditions -  °F | °C
As of 12:30 PM on Friday 24 Oct 2014 (Local Time) from LRCV Reporting Station
Broken Clouds Broken Clouds  
Wind Chill: 43°   Ceiling: 3400
Heat Index: 48°   Visibility: 6mi
Dew Point: 43°   Wind: 12mph
Humidity: 82%   Direction: 90°E
Pressure: 30"   Gusts: NA
Location:  44°N, 22.95°E
Report Text: LRCV 240930Z 09010KT 9999 SCT014 BKN034 09/06 Q1016
Loading
Personal Weather Stations






























Interactive Weather Map
Tropical Storm Tracking
New forecast layout! Learn more

10-Day Weather Forecast

Advertisements
Track Severe Weather on mobile